createdAt,value
2023-09-03T00:00:49.004Z,20.83
2023-09-03T00:03:16.117Z,19.02
2023-09-03T00:05:57.508Z,22.20
2023-09-03T00:08:25.021Z,22.15
2023-09-03T00:10:53.880Z,17.70
2023-09-03T00:13:21.907Z,18.77
2023-09-03T00:15:48.948Z,18.80
2023-09-03T00:18:16.348Z,21.58
2023-09-03T00:20:59.242Z,24.15
2023-09-03T00:23:26.362Z,23.25
2023-09-03T00:25:53.568Z,20.40
2023-09-03T00:28:21.298Z,21.52
2023-09-03T00:31:01.146Z,22.05
2023-09-03T00:33:29.280Z,23.77
2023-09-03T00:35:56.253Z,20.75
2023-09-03T00:38:23.268Z,23.83
2023-09-03T00:40:50.426Z,21.02
2023-09-03T00:43:18.616Z,26.33
2023-09-03T00:45:47.876Z,21.45
2023-09-03T00:48:17.643Z,18.63
2023-09-03T00:50:46.659Z,19.48
2023-09-03T00:53:16.580Z,20.40
2023-09-03T00:55:43.659Z,24.58
2023-09-03T00:58:10.910Z,23.02
2023-09-03T01:00:38.316Z,23.02
2023-09-03T01:03:06.191Z,21.83
2023-09-03T01:05:33.285Z,26.05
2023-09-03T01:08:02.136Z,23.15
2023-09-03T01:10:44.654Z,20.10
2023-09-03T01:13:24.646Z,25.52
2023-09-03T01:15:55.384Z,25.50
2023-09-03T01:18:24.836Z,23.00
2023-09-03T01:21:34.250Z,22.98
2023-09-03T01:24:18.204Z,22.13
2023-09-03T01:26:53.999Z,21.70
2023-09-03T01:29:21.684Z,22.77
2023-09-03T01:31:50.120Z,25.08
2023-09-03T01:34:18.443Z,19.13
2023-09-03T01:36:46.726Z,20.15
2023-09-03T01:39:13.709Z,21.55
2023-09-03T01:41:40.677Z,21.17
2023-09-03T01:44:08.503Z,21.58
2023-09-03T01:46:50.940Z,22.67
2023-09-03T01:49:55.440Z,22.83
2023-09-03T01:52:46.692Z,19.63
2023-09-03T01:55:17.454Z,21.55
2023-09-03T01:57:55.916Z,22.45
2023-09-03T02:00:24.359Z,22.85
2023-09-03T02:02:53.065Z,24.70
2023-09-03T02:05:21.110Z,23.00
2023-09-03T02:07:48.106Z,22.33
2023-09-03T02:10:15.236Z,22.15
2023-09-03T02:12:42.336Z,22.23
2023-09-03T02:15:10.747Z,18.90
2023-09-03T02:17:37.749Z,19.27
2023-09-03T02:20:05.410Z,23.15
2023-09-03T02:22:32.399Z,25.63
2023-09-03T02:24:59.409Z,24.77
2023-09-03T02:27:26.411Z,23.45
2023-09-03T02:29:55.293Z,22.70
2023-09-03T02:32:22.316Z,24.10
2023-09-03T02:34:49.331Z,21.45
2023-09-03T02:37:17.510Z,22.42
2023-09-03T02:39:44.565Z,23.30
2023-09-03T02:42:11.547Z,25.05
2023-09-03T02:44:38.489Z,25.63
2023-09-03T02:47:05.572Z,24.08
2023-09-03T02:49:32.568Z,24.73
2023-09-03T02:51:59.591Z,23.65
2023-09-03T02:54:26.530Z,23.75
2023-09-03T02:56:53.592Z,23.90
2023-09-03T02:59:20.747Z,24.40
2023-09-03T03:01:47.836Z,24.88
2023-09-03T03:04:14.842Z,23.05
2023-09-03T03:06:41.964Z,24.90
2023-09-03T03:09:09.015Z,21.80
2023-09-03T03:11:35.998Z,21.58
2023-09-03T03:14:03.416Z,22.75
2023-09-03T03:16:34.032Z,22.13
2023-09-03T03:19:05.863Z,22.70
2023-09-03T03:21:34.634Z,24.55
2023-09-03T03:24:06.140Z,21.63
2023-09-03T03:26:36.360Z,25.10
2023-09-03T03:29:05.889Z,20.98
2023-09-03T03:31:37.292Z,20.67
2023-09-03T03:34:05.097Z,24.45
2023-09-03T03:36:33.524Z,22.42
2023-09-03T03:39:01.054Z,21.58
2023-09-03T03:41:28.354Z,23.98
2023-09-03T03:43:56.158Z,18.33
2023-09-03T03:46:26.308Z,18.35
2023-09-03T03:48:56.262Z,24.23
2023-09-03T03:51:23.249Z,21.75
2023-09-03T03:53:51.198Z,22.42
2023-09-03T03:56:19.207Z,22.95
2023-09-03T03:58:47.646Z,23.60
2023-09-03T04:01:19.018Z,22.55
2023-09-03T04:03:49.003Z,28.52
2023-09-03T04:06:16.316Z,25.55
2023-09-03T04:08:45.128Z,27.67
2023-09-03T04:11:18.064Z,27.30
2023-09-03T04:13:45.348Z,22.45
2023-09-03T04:16:18.212Z,24.45
2023-09-03T04:18:48.112Z,29.65
2023-09-03T04:21:15.176Z,22.70
2023-09-03T04:23:42.306Z,26.73
2023-09-03T04:26:10.644Z,28.15
2023-09-03T04:28:42.569Z,24.35
2023-09-03T04:31:10.253Z,26.45
2023-09-03T04:33:40.579Z,25.42
2023-09-03T04:36:10.926Z,25.17
2023-09-03T04:38:38.119Z,25.30
2023-09-03T04:41:06.603Z,23.05
2023-09-03T04:44:08.495Z,24.45
2023-09-03T04:46:39.977Z,26.25
2023-09-03T04:49:07.240Z,23.90
2023-09-03T04:51:36.216Z,25.58
2023-09-03T04:54:03.665Z,24.15
2023-09-03T04:56:30.731Z,21.25
2023-09-03T04:58:57.722Z,22.83
2023-09-03T05:01:24.758Z,25.27
2023-09-03T05:03:56.240Z,23.13
2023-09-03T05:06:24.192Z,21.30
2023-09-03T05:08:53.390Z,23.30
2023-09-03T05:11:21.485Z,23.35
2023-09-03T05:13:50.090Z,22.55
2023-09-03T05:16:18.567Z,23.92
2023-09-03T05:18:45.874Z,19.92
2023-09-03T05:21:14.201Z,22.63
2023-09-03T05:23:41.450Z,22.17
2023-09-03T05:26:08.680Z,22.27
2023-09-03T05:28:38.526Z,19.55
2023-09-03T05:31:05.461Z,21.10
2023-09-03T05:33:33.634Z,20.25
2023-09-03T05:36:00.922Z,21.80
2023-09-03T05:38:27.955Z,22.27
2023-09-03T05:40:59.642Z,23.08
2023-09-03T05:43:28.069Z,20.02
2023-09-03T05:45:56.671Z,21.25
2023-09-03T05:48:25.228Z,23.75
2023-09-03T05:51:05.292Z,23.15
2023-09-03T05:53:35.040Z,21.70
2023-09-03T05:56:12.872Z,21.92
2023-09-03T05:58:43.897Z,22.00
2023-09-03T06:01:12.262Z,19.30
2023-09-03T06:03:40.797Z,21.73
2023-09-03T06:06:11.582Z,20.50
2023-09-03T06:08:39.765Z,23.88
2023-09-03T06:11:07.173Z,20.63
2023-09-03T06:13:34.926Z,22.98
2023-09-03T06:16:02.067Z,20.27
2023-09-03T06:18:29.313Z,21.33
2023-09-03T06:20:56.453Z,20.52
2023-09-03T06:23:23.447Z,20.58
2023-09-03T06:25:51.987Z,23.10
2023-09-03T06:28:19.428Z,23.52
2023-09-03T06:30:46.945Z,21.48
2023-09-03T06:33:14.114Z,23.27
2023-09-03T06:35:41.229Z,21.02
2023-09-03T06:38:08.185Z,22.27
2023-09-03T06:40:35.194Z,23.80
2023-09-03T06:43:02.214Z,26.67
2023-09-03T06:45:29.196Z,26.65
2023-09-03T06:47:56.196Z,27.35
2023-09-03T06:50:23.386Z,27.50
2023-09-03T06:52:50.468Z,29.90
2023-09-03T06:55:19.283Z,29.13
2023-09-03T06:57:46.584Z,26.83
2023-09-03T07:00:14.218Z,32.13
2023-09-03T07:02:41.232Z,29.23
2023-09-03T07:05:08.840Z,31.63
2023-09-03T07:07:36.875Z,30.65
2023-09-03T07:10:04.107Z,32.20
2023-09-03T07:12:31.142Z,39.10
2023-09-03T07:14:58.200Z,31.77
2023-09-03T07:17:25.235Z,32.20
2023-09-03T07:19:56.068Z,33.92
2023-09-03T07:22:23.135Z,33.95
2023-09-03T07:24:53.993Z,31.33
2023-09-03T07:27:21.201Z,30.08
2023-09-03T07:29:52.667Z,32.70
2023-09-03T07:32:24.429Z,32.85
2023-09-03T07:34:52.370Z,31.70
2023-09-03T07:37:19.554Z,30.63
2023-09-03T07:39:47.767Z,30.77
2023-09-03T07:42:14.840Z,28.35
2023-09-03T07:44:41.877Z,29.42
2023-09-03T07:47:08.852Z,32.15
2023-09-03T07:49:36.005Z,34.40
2023-09-03T07:52:03.053Z,30.55
2023-09-03T07:54:30.040Z,27.77
2023-09-03T07:56:57.077Z,23.10
2023-09-03T07:59:23.996Z,33.47
2023-09-03T08:01:51.006Z,20.85
2023-09-03T08:04:18.063Z,23.50
2023-09-03T08:06:45.609Z,35.15
2023-09-03T08:09:13.195Z,34.88
2023-09-03T08:11:40.159Z,35.15
2023-09-03T08:14:07.503Z,33.83
2023-09-03T08:16:34.674Z,41.85
2023-09-03T08:19:01.737Z,31.48
2023-09-03T08:21:28.754Z,32.13
2023-09-03T08:23:55.731Z,28.17
2023-09-03T08:26:22.705Z,25.33
2023-09-03T08:28:49.848Z,30.83
2023-09-03T08:31:17.938Z,31.35
2023-09-03T08:33:45.601Z,21.58
2023-09-03T08:36:12.635Z,33.60
2023-09-03T08:38:39.686Z,29.45
2023-09-03T08:41:06.723Z,28.63
2023-09-03T08:43:34.358Z,22.65
2023-09-03T08:46:10.939Z,23.13
2023-09-03T08:48:40.402Z,26.60
2023-09-03T08:51:09.042Z,26.45
2023-09-03T08:53:38.055Z,26.77
2023-09-03T08:56:05.192Z,28.25
2023-09-03T08:58:33.617Z,23.25
2023-09-03T09:01:00.739Z,20.92
2023-09-03T09:03:30.947Z,21.33
2023-09-03T09:05:58.697Z,19.23
2023-09-03T09:08:26.817Z,23.58
2023-09-03T09:10:57.801Z,16.45
2023-09-03T09:13:28.579Z,24.20
2023-09-03T09:15:56.021Z,24.10
2023-09-03T09:18:23.048Z,16.65
2023-09-03T09:20:51.924Z,22.42
2023-09-03T09:23:24.037Z,18.75
2023-09-03T09:25:52.106Z,15.75
2023-09-03T09:28:19.116Z,20.38
2023-09-03T09:30:59.675Z,17.63
2023-09-03T09:33:28.333Z,17.73
2023-09-03T09:35:55.914Z,20.67
2023-09-03T09:38:35.872Z,15.20
2023-09-03T09:41:22.170Z,18.73
2023-09-03T09:43:49.164Z,19.10
2023-09-03T09:46:28.640Z,16.52
2023-09-03T09:48:57.599Z,19.20
2023-09-03T09:51:25.261Z,16.10
2023-09-03T09:53:59.646Z,14.38
2023-09-03T09:56:28.544Z,11.82
2023-09-03T09:58:56.065Z,11.82
2023-09-03T10:01:24.426Z,13.50
2023-09-03T10:03:51.574Z,13.75
2023-09-03T10:06:20.884Z,14.77
2023-09-03T10:08:51.946Z,19.33
2023-09-03T10:11:20.602Z,15.85
2023-09-03T10:13:49.270Z,12.43
2023-09-03T10:16:20.808Z,21.23
2023-09-03T10:18:50.144Z,16.27
2023-09-03T10:21:42.640Z,15.35
2023-09-03T10:24:15.977Z,13.38
2023-09-03T10:26:46.083Z,11.90
2023-09-03T10:29:15.894Z,10.45
2023-09-03T10:31:43.890Z,17.88
2023-09-03T10:34:11.949Z,13.57
2023-09-03T10:36:39.590Z,13.95
2023-09-03T10:39:24.730Z,13.63
2023-09-03T10:42:17.625Z,10.02
2023-09-03T10:44:56.258Z,17.50
2023-09-03T10:47:23.378Z,9.20
2023-09-03T10:49:52.258Z,11.57
2023-09-03T10:52:35.968Z,11.20
2023-09-03T10:55:21.286Z,11.10
2023-09-03T10:57:50.194Z,10.80
2023-09-03T11:00:19.317Z,8.38
2023-09-03T11:02:49.612Z,8.20
2023-09-03T11:05:27.914Z,8.30
2023-09-03T11:08:30.805Z,8.95
2023-09-03T11:10:59.067Z,9.43
2023-09-03T11:13:37.725Z,9.63
2023-09-03T11:16:06.078Z,9.35
2023-09-03T11:18:33.830Z,8.95
2023-09-03T11:21:02.706Z,9.52
2023-09-03T11:23:32.752Z,9.80
2023-09-03T11:26:04.504Z,13.38
2023-09-03T11:28:37.024Z,8.48
2023-09-03T11:31:04.910Z,14.18
2023-09-03T11:33:32.143Z,11.27
2023-09-03T11:36:01.318Z,11.98
2023-09-03T11:38:30.905Z,9.90
2023-09-03T11:40:58.435Z,9.45
2023-09-03T11:43:30.259Z,11.85
2023-09-03T11:45:58.273Z,10.13
2023-09-03T11:48:29.995Z,11.00
2023-09-03T11:50:57.514Z,11.77
2023-09-03T11:53:25.260Z,10.23
2023-09-03T11:55:58.108Z,11.55
2023-09-03T11:58:29.360Z,10.73
2023-09-03T12:00:56.909Z,10.85
2023-09-03T12:03:26.022Z,11.07
2023-09-03T12:05:53.853Z,8.98
2023-09-03T12:08:21.122Z,10.02
2023-09-03T12:10:51.602Z,11.57
2023-09-03T12:13:31.467Z,9.23
2023-09-03T12:16:10.220Z,8.70
2023-09-03T12:18:39.249Z,13.02
2023-09-03T12:21:09.195Z,8.50
2023-09-03T12:23:36.873Z,11.90
2023-09-03T12:26:04.646Z,13.25
2023-09-03T12:28:38.584Z,9.40
2023-09-03T12:31:08.671Z,11.55
2023-09-03T12:33:38.584Z,10.15
2023-09-03T12:36:05.588Z,9.07
2023-09-03T12:38:32.923Z,8.95
2023-09-03T12:41:00.051Z,9.95
2023-09-03T12:43:37.003Z,10.55
2023-09-03T12:46:04.298Z,8.57
2023-09-03T12:48:32.060Z,7.35
2023-09-03T12:50:59.062Z,8.27
2023-09-03T12:53:26.034Z,11.23
2023-09-03T12:55:57.305Z,12.00
2023-09-03T12:58:24.293Z,8.07
2023-09-03T13:00:52.736Z,9.18
2023-09-03T13:03:20.174Z,12.05
2023-09-03T13:05:47.543Z,9.75
2023-09-03T13:08:14.732Z,8.75
2023-09-03T13:10:42.609Z,9.73
2023-09-03T13:13:13.369Z,9.15
2023-09-03T13:15:40.735Z,8.98
2023-09-03T13:18:08.159Z,10.98
2023-09-03T13:20:35.916Z,13.00
2023-09-03T13:23:02.951Z,8.70
2023-09-03T13:25:35.162Z,8.32
2023-09-03T13:28:02.774Z,8.95
2023-09-03T13:30:29.690Z,8.63
2023-09-03T13:32:57.878Z,8.82
2023-09-03T13:35:26.532Z,8.35
2023-09-03T13:37:53.969Z,10.77
2023-09-03T13:40:20.965Z,7.72
2023-09-03T13:42:48.137Z,10.32
2023-09-03T13:45:15.245Z,9.75
2023-09-03T13:47:42.238Z,13.80
2023-09-03T13:50:09.607Z,9.57
2023-09-03T13:52:37.391Z,9.68
2023-09-03T13:55:04.622Z,9.60
2023-09-03T13:57:31.558Z,8.90
2023-09-03T13:59:58.921Z,8.63
2023-09-03T14:02:30.142Z,6.30
2023-09-03T14:04:59.417Z,7.28
2023-09-03T14:07:26.564Z,7.47
2023-09-03T14:09:55.208Z,8.10
2023-09-03T14:12:23.836Z,8.93
2023-09-03T14:14:50.870Z,7.68
2023-09-03T14:17:18.020Z,7.97
2023-09-03T14:19:46.387Z,6.70
2023-09-03T14:22:13.857Z,7.18
2023-09-03T14:24:41.024Z,7.57
2023-09-03T14:27:08.319Z,6.80
2023-09-03T14:29:35.608Z,7.70
2023-09-03T14:32:03.901Z,11.27
2023-09-03T14:34:31.344Z,8.43
2023-09-03T14:36:58.500Z,8.90
2023-09-03T14:39:25.686Z,6.90
2023-09-03T14:41:53.003Z,7.10
2023-09-03T14:44:20.020Z,7.55
2023-09-03T14:46:47.188Z,9.30
2023-09-03T14:49:20.177Z,6.82
2023-09-03T14:51:47.172Z,7.68
2023-09-03T14:54:14.365Z,9.63
2023-09-03T14:56:41.571Z,9.88
2023-09-03T14:59:08.613Z,6.32
2023-09-03T15:01:35.711Z,5.57
2023-09-03T15:04:02.976Z,7.25
2023-09-03T15:06:30.131Z,6.78
2023-09-03T15:08:57.166Z,5.95
2023-09-03T15:11:25.218Z,6.20
2023-09-03T15:13:57.059Z,6.05
2023-09-03T15:16:24.734Z,6.03
2023-09-03T15:18:51.712Z,7.75
2023-09-03T15:21:18.855Z,5.72
2023-09-03T15:23:46.096Z,5.90
2023-09-03T15:26:13.224Z,5.97
2023-09-03T15:28:40.391Z,6.63
2023-09-03T15:31:07.451Z,7.68
2023-09-03T15:33:34.486Z,6.18
2023-09-03T15:36:05.215Z,6.68
2023-09-03T15:38:34.390Z,5.55
2023-09-03T15:41:02.945Z,4.80
2023-09-03T15:43:29.902Z,5.40
2023-09-03T15:45:57.003Z,5.75
2023-09-03T15:48:24.894Z,4.95
2023-09-03T15:50:51.985Z,5.65
2023-09-03T15:53:19.235Z,6.95
2023-09-03T15:55:46.333Z,4.50
2023-09-03T15:58:13.473Z,5.22
2023-09-03T16:00:41.163Z,3.65
2023-09-03T16:03:08.923Z,4.82
2023-09-03T16:05:36.081Z,4.93
2023-09-03T16:08:03.294Z,7.57
2023-09-03T16:10:30.407Z,4.30
2023-09-03T16:12:59.489Z,4.32
2023-09-03T16:15:27.607Z,5.63
2023-09-03T16:17:55.111Z,4.45
2023-09-03T16:20:23.052Z,4.32
2023-09-03T16:22:50.400Z,4.45
2023-09-03T16:25:17.719Z,3.70
2023-09-03T16:27:45.011Z,3.95
2023-09-03T16:30:12.580Z,4.43
2023-09-03T16:32:39.702Z,4.65
2023-09-03T16:35:07.301Z,4.40
2023-09-03T16:37:34.317Z,5.43
2023-09-03T16:40:01.266Z,4.75
2023-09-03T16:42:28.266Z,5.72
2023-09-03T16:44:58.509Z,4.47
2023-09-03T16:47:32.081Z,4.22
2023-09-03T16:50:00.454Z,4.95
2023-09-03T16:52:29.210Z,5.03
2023-09-03T16:54:56.284Z,8.25
2023-09-03T16:57:24.134Z,5.93
2023-09-03T16:59:51.897Z,4.97
2023-09-03T17:02:19.567Z,7.45
2023-09-03T17:04:46.768Z,4.90
2023-09-03T17:07:13.845Z,6.70
2023-09-03T17:09:40.852Z,4.60
2023-09-03T17:12:08.013Z,4.93
2023-09-03T17:14:35.103Z,4.90
2023-09-03T17:17:06.382Z,4.90
2023-09-03T17:19:35.316Z,4.43
2023-09-03T17:22:02.910Z,7.90
2023-09-03T17:24:30.119Z,8.75
2023-09-03T17:26:57.068Z,10.52
2023-09-03T17:29:24.387Z,6.03
2023-09-03T17:31:54.073Z,5.03
2023-09-03T17:34:21.385Z,5.05
2023-09-03T17:36:48.982Z,4.95
2023-09-03T17:39:16.197Z,6.55
2023-09-03T17:41:43.519Z,5.28
2023-09-03T17:44:10.695Z,7.40
2023-09-03T17:46:37.788Z,5.70
2023-09-03T17:49:04.962Z,5.43
2023-09-03T17:51:32.116Z,5.78
2023-09-03T17:53:59.216Z,5.57
2023-09-03T17:56:27.339Z,5.80
2023-09-03T17:58:54.478Z,7.53
2023-09-03T18:01:21.584Z,6.88
2023-09-03T18:03:48.676Z,5.00
2023-09-03T18:06:16.451Z,6.55
2023-09-03T18:08:44.883Z,6.55
2023-09-03T18:11:15.946Z,5.80
2023-09-03T18:13:45.013Z,5.78
2023-09-03T18:16:16.891Z,7.38
2023-09-03T18:18:47.733Z,96.97
2023-09-03T18:21:18.695Z,56.90
2023-09-03T18:23:46.476Z,21.85
2023-09-03T18:26:13.664Z,20.45
2023-09-03T18:28:43.654Z,15.70
2023-09-03T18:31:12.182Z,11.70
2023-09-03T18:33:40.633Z,13.20
2023-09-03T18:36:07.728Z,13.93
2023-09-03T18:38:34.839Z,12.13
2023-09-03T18:41:02.142Z,11.75
2023-09-03T18:43:29.106Z,15.63
2023-09-03T18:45:59.882Z,14.00
2023-09-03T18:48:27.045Z,13.13
2023-09-03T18:50:54.179Z,15.80
2023-09-03T18:53:22.923Z,11.07
2023-09-03T18:55:50.088Z,8.45
2023-09-03T18:58:17.061Z,10.25
2023-09-03T19:00:44.099Z,8.18
2023-09-03T19:03:11.277Z,9.73
2023-09-03T19:05:42.112Z,11.60
2023-09-03T19:08:09.285Z,8.88
2023-09-03T19:10:36.242Z,10.68
2023-09-03T19:13:06.539Z,8.95
2023-09-03T19:15:41.264Z,9.80
2023-09-03T19:18:12.144Z,13.98
2023-09-03T19:20:40.038Z,7.30
2023-09-03T19:23:08.425Z,8.60
2023-09-03T19:25:42.152Z,7.35
2023-09-03T19:28:10.747Z,9.82
2023-09-03T19:30:39.536Z,9.98
2023-09-03T19:33:07.607Z,9.77
2023-09-03T19:35:36.937Z,13.07
2023-09-03T19:38:05.917Z,7.85
2023-09-03T19:40:33.651Z,8.85
2023-09-03T19:43:01.393Z,8.75
2023-09-03T19:45:28.433Z,7.07
2023-09-03T19:48:18.950Z,6.68
2023-09-03T19:50:46.218Z,10.32
2023-09-03T19:53:13.498Z,6.18
2023-09-03T19:55:40.538Z,7.88
2023-09-03T19:58:10.141Z,6.53
2023-09-03T20:00:40.237Z,7.93
2023-09-03T20:03:08.250Z,12.43
2023-09-03T20:05:36.982Z,7.50
2023-09-03T20:08:07.502Z,6.25
2023-09-03T20:10:38.529Z,6.68
2023-09-03T20:13:08.682Z,12.20
2023-09-03T20:15:38.689Z,6.28
2023-09-03T20:18:06.501Z,8.07
2023-09-03T20:20:36.506Z,7.18
2023-09-03T20:23:04.388Z,6.05
2023-09-03T20:25:31.381Z,10.38
2023-09-03T20:27:58.666Z,6.50
2023-09-03T20:30:26.148Z,6.47
2023-09-03T20:32:53.271Z,8.55
2023-09-03T20:35:20.510Z,6.20
2023-09-03T20:37:49.042Z,9.25
2023-09-03T20:40:16.786Z,6.63
2023-09-03T20:42:43.802Z,7.40
2023-09-03T20:45:11.225Z,6.53
2023-09-03T20:47:40.621Z,7.80
2023-09-03T20:50:08.203Z,7.60
2023-09-03T20:52:35.226Z,6.75
2023-09-03T20:55:02.206Z,9.15
2023-09-03T20:57:29.233Z,5.70
2023-09-03T20:59:56.161Z,6.78
2023-09-03T21:02:23.192Z,6.53
2023-09-03T21:04:50.130Z,5.38
2023-09-03T21:07:17.230Z,5.30
2023-09-03T21:09:46.601Z,9.05
2023-09-03T21:12:13.691Z,6.78
2023-09-03T21:14:45.193Z,5.75
2023-09-03T21:17:12.563Z,5.75
2023-09-03T21:19:39.565Z,5.80
2023-09-03T21:22:06.577Z,8.25
2023-09-03T21:24:33.598Z,6.53
2023-09-03T21:27:00.545Z,6.57
2023-09-03T21:29:30.676Z,7.97
2023-09-03T21:31:57.697Z,5.57
2023-09-03T21:34:24.867Z,7.78
2023-09-03T21:36:51.965Z,5.78
2023-09-03T21:39:19.204Z,7.63
2023-09-03T21:41:46.234Z,5.93
2023-09-03T21:44:15.754Z,5.43
2023-09-03T21:46:44.637Z,5.38
2023-09-03T21:49:11.688Z,5.55
2023-09-03T21:51:38.830Z,6.97
2023-09-03T21:54:05.994Z,6.82
2023-09-03T21:56:33.003Z,5.97
2023-09-03T21:59:00.004Z,9.02
2023-09-03T22:01:27.361Z,5.50
2023-09-03T22:03:54.564Z,8.30
2023-09-03T22:06:21.681Z,5.72
2023-09-03T22:08:48.692Z,6.65
2023-09-03T22:11:16.073Z,5.90
2023-09-03T22:13:43.255Z,7.22
2023-09-03T22:16:10.557Z,8.90
2023-09-03T22:18:53.980Z,5.28
2023-09-03T22:21:24.023Z,9.13
2023-09-03T22:23:51.528Z,7.70
2023-09-03T22:26:18.819Z,4.97
2023-09-03T22:28:46.347Z,7.32
2023-09-03T22:31:13.660Z,5.00
2023-09-03T22:33:40.815Z,6.45
2023-09-03T22:36:08.100Z,5.00
2023-09-03T22:38:35.128Z,8.40
2023-09-03T22:41:02.244Z,6.28
2023-09-03T22:43:29.203Z,5.65
2023-09-03T22:45:56.172Z,5.50
2023-09-03T22:48:23.506Z,6.13
2023-09-03T22:50:52.094Z,5.60
2023-09-03T22:53:19.465Z,5.38
2023-09-03T22:55:46.434Z,5.63
2023-09-03T22:58:13.457Z,7.97
2023-09-03T23:00:40.636Z,6.85
2023-09-03T23:03:09.602Z,5.88
2023-09-03T23:05:36.712Z,5.85
2023-09-03T23:08:04.212Z,8.57
2023-09-03T23:10:31.350Z,5.95
2023-09-03T23:12:58.596Z,5.30
2023-09-03T23:15:25.921Z,7.10
2023-09-03T23:17:52.990Z,5.90
2023-09-03T23:20:19.992Z,5.47
2023-09-03T23:22:48.327Z,5.35
2023-09-03T23:25:16.300Z,5.78
2023-09-03T23:27:43.831Z,6.25
2023-09-03T23:30:11.680Z,6.28
2023-09-03T23:32:39.219Z,6.20
2023-09-03T23:35:09.511Z,5.78
2023-09-03T23:37:36.521Z,6.05
2023-09-03T23:40:04.426Z,5.97
2023-09-03T23:42:31.383Z,6.05
2023-09-03T23:45:00.870Z,7.35
2023-09-03T23:47:28.587Z,9.88
2023-09-03T23:49:55.750Z,6.45
2023-09-03T23:52:22.812Z,5.88
2023-09-03T23:54:49.875Z,6.30
2023-09-03T23:57:17.046Z,6.55
2023-09-03T23:59:44.272Z,7.10
